Lockhart, Minnesota
Current Conditions -  °F | °C
As of 8:15 AM on Tuesday 27 Jan 2015 (Local Time) from K3N8 Reporting Station
Overcast Overcast  
Wind Chill: 17°   Ceiling: 400
Heat Index: 25°   Visibility: 10mi
Dew Point: 24°   Wind: 7mph
Humidity: 96%   Direction: 160°SSE
Pressure: 30.04"   Gusts: NA
Location:  47.3701°N, 96.4867°W
Report Text: K3N8 271415Z AUTO 16006KT 10SM OVC004 M04/M05 A3004 RMK AO2 T10411046
Loading
Personal Weather Stations






























Interactive Weather Map New forecast layout! Learn more

10-Day Weather Forecast

Advertisements
Track Severe Weather on mobile